createdAt,value
2022-10-18T00:01:15.206Z,20.90
2022-10-18T00:06:16.996Z,17.90
2022-10-18T00:08:45.479Z,23.10
2022-10-18T00:11:14.005Z,23.40
2022-10-18T00:13:42.586Z,24.60
2022-10-18T00:16:17.047Z,19.27
2022-10-18T00:18:46.477Z,19.80
2022-10-18T00:21:20.864Z,17.80
2022-10-18T00:23:50.648Z,20.57
2022-10-18T00:26:28.019Z,23.60
2022-10-18T00:29:00.595Z,21.20
2022-10-18T00:31:34.117Z,24.13
2022-10-18T00:34:08.326Z,19.50
2022-10-18T00:36:37.070Z,21.20
2022-10-18T00:39:07.568Z,22.43
2022-10-18T00:41:38.838Z,19.53
2022-10-18T00:44:11.991Z,22.77
2022-10-18T00:46:46.311Z,24.27
2022-10-18T00:49:23.135Z,21.03
2022-10-18T00:52:02.752Z,20.93
2022-10-18T00:54:34.136Z,24.27
2022-10-18T00:57:03.442Z,21.20
2022-10-18T00:59:31.859Z,21.27
2022-10-18T01:02:00.467Z,19.80
2022-10-18T01:04:28.910Z,16.83
2022-10-18T01:07:22.070Z,19.67
2022-10-18T01:10:10.919Z,18.13
2022-10-18T01:13:04.997Z,17.67
2022-10-18T01:15:42.950Z,21.03
2022-10-18T01:18:23.837Z,21.23
2022-10-18T01:21:26.113Z,21.50
2022-10-18T01:24:26.283Z,22.90
2022-10-18T01:27:30.128Z,25.53
2022-10-18T01:30:04.990Z,25.60
2022-10-18T01:32:41.923Z,21.77
2022-10-18T01:35:17.632Z,26.07
2022-10-18T01:37:48.501Z,32.47
2022-10-18T01:40:20.548Z,42.97
2022-10-18T01:42:50.564Z,36.83
2022-10-18T01:45:22.179Z,31.20
2022-10-18T01:47:52.052Z,30.70
2022-10-18T01:50:34.775Z,31.47
2022-10-18T01:53:04.125Z,25.47
2022-10-18T01:55:46.665Z,24.73
2022-10-18T01:58:39.529Z,22.87
2022-10-18T02:01:19.378Z,23.90
2022-10-18T02:03:52.705Z,28.50
2022-10-18T02:06:36.625Z,29.90
2022-10-18T02:09:39.403Z,26.43
2022-10-18T02:12:12.983Z,23.10
2022-10-18T02:14:44.185Z,24.60
2022-10-18T02:17:15.882Z,24.20
2022-10-18T02:19:56.884Z,25.07
2022-10-18T02:22:32.822Z,27.67
2022-10-18T02:25:06.590Z,24.07
2022-10-18T02:27:35.112Z,26.07
2022-10-18T02:30:03.645Z,26.00
2022-10-18T02:32:48.080Z,30.43
2022-10-18T02:35:25.453Z,24.33
2022-10-18T02:37:56.212Z,25.63
2022-10-18T02:40:25.490Z,25.30
2022-10-18T02:42:59.213Z,26.93
2022-10-18T02:45:28.238Z,24.40
2022-10-18T02:47:56.611Z,23.47
2022-10-18T02:50:25.133Z,32.73
2022-10-18T02:52:53.528Z,28.30
2022-10-18T02:55:22.040Z,25.07
2022-10-18T02:57:50.534Z,27.90
2022-10-18T03:00:19.154Z,29.53
2022-10-18T03:02:47.577Z,24.80
2022-10-18T03:05:16.086Z,28.00
2022-10-18T03:07:44.486Z,28.00
2022-10-18T03:10:12.918Z,34.53
2022-10-18T03:12:41.277Z,24.50
2022-10-18T03:15:09.946Z,25.97
2022-10-18T03:17:38.433Z,31.73
2022-10-18T03:20:07.814Z,28.50
2022-10-18T03:22:36.382Z,37.80
2022-10-18T03:25:04.925Z,29.27
2022-10-18T03:27:33.636Z,34.20
2022-10-18T03:30:02.680Z,29.97
2022-10-18T03:32:31.379Z,32.23
2022-10-18T03:35:00.033Z,28.00
2022-10-18T03:37:28.427Z,32.10
2022-10-18T03:39:56.933Z,33.43
2022-10-18T03:42:25.396Z,31.33
2022-10-18T03:44:53.842Z,41.00
2022-10-18T03:47:22.363Z,38.23
2022-10-18T03:49:53.237Z,47.70
2022-10-18T03:52:24.920Z,54.07
2022-10-18T03:54:53.521Z,83.60
2022-10-18T03:57:22.035Z,91.60
2022-10-18T03:59:50.484Z,96.80
2022-10-18T04:02:19.108Z,99.00
2022-10-18T04:04:47.457Z,103.97
2022-10-18T04:07:15.934Z,106.30
2022-10-18T04:09:44.408Z,90.03
2022-10-18T04:12:12.791Z,91.13
2022-10-18T04:14:41.208Z,96.63
2022-10-18T04:17:10.095Z,97.73
2022-10-18T04:19:38.520Z,97.23
2022-10-18T04:22:06.879Z,118.00
2022-10-18T04:24:35.276Z,115.97
2022-10-18T04:27:03.614Z,81.33
2022-10-18T04:29:31.988Z,65.13
2022-10-18T04:32:01.406Z,47.50
2022-10-18T04:34:29.929Z,47.20
2022-10-18T04:36:58.297Z,38.57
2022-10-18T04:39:26.749Z,39.10
2022-10-18T04:41:55.135Z,37.50
2022-10-18T04:44:23.922Z,36.00
2022-10-18T04:46:52.312Z,32.00
2022-10-18T04:49:20.893Z,33.60
2022-10-18T04:51:49.254Z,35.30
2022-10-18T04:54:17.864Z,43.10
2022-10-18T04:56:46.227Z,46.43
2022-10-18T04:59:14.576Z,48.70
2022-10-18T05:01:43.075Z,42.90
2022-10-18T05:04:11.548Z,36.73
2022-10-18T05:06:39.994Z,36.60
2022-10-18T05:09:08.517Z,37.73
2022-10-18T05:11:36.946Z,35.33
2022-10-18T05:14:06.215Z,34.50
2022-10-18T05:16:34.845Z,35.30
2022-10-18T05:19:04.494Z,34.80
2022-10-18T05:21:33.019Z,30.00
2022-10-18T05:24:01.478Z,38.13
2022-10-18T05:26:29.897Z,37.13
2022-10-18T05:28:58.561Z,34.00
2022-10-18T05:31:27.331Z,34.03
2022-10-18T05:33:55.895Z,38.40
2022-10-18T05:36:26.398Z,33.17
2022-10-18T05:38:54.964Z,32.90
2022-10-18T05:41:23.655Z,29.93
2022-10-18T05:43:52.167Z,32.87
2022-10-18T05:46:20.689Z,38.13
2022-10-18T05:48:53.282Z,34.83
2022-10-18T05:51:21.816Z,33.63
2022-10-18T05:53:50.184Z,35.17
2022-10-18T05:56:18.626Z,33.70
2022-10-18T05:58:52.230Z,35.30
2022-10-18T06:01:20.832Z,41.80
2022-10-18T06:03:49.288Z,35.63
2022-10-18T06:06:18.244Z,38.90
2022-10-18T06:08:49.852Z,38.80
2022-10-18T06:11:20.665Z,40.77
2022-10-18T06:13:51.013Z,34.30
2022-10-18T06:16:23.158Z,39.27
2022-10-18T06:18:54.728Z,38.73
2022-10-18T06:21:24.529Z,42.13
2022-10-18T06:23:54.545Z,35.53
2022-10-18T06:26:23.566Z,39.67
2022-10-18T06:28:52.302Z,36.93
2022-10-18T06:31:22.168Z,35.77
2022-10-18T06:33:50.910Z,43.63
2022-10-18T06:36:22.878Z,39.30
2022-10-18T06:38:52.082Z,39.20
2022-10-18T06:41:21.206Z,42.13
2022-10-18T06:43:54.463Z,36.90
2022-10-18T06:46:22.843Z,37.77
2022-10-18T06:48:51.319Z,41.13
2022-10-18T06:51:19.853Z,44.23
2022-10-18T06:53:59.729Z,46.33
2022-10-18T06:56:37.038Z,43.63
2022-10-18T06:59:05.923Z,39.47
2022-10-18T07:01:34.559Z,38.23
2022-10-18T07:04:03.580Z,39.30
2022-10-18T07:06:32.087Z,39.03
2022-10-18T07:09:01.017Z,39.53
2022-10-18T07:11:29.674Z,45.23
2022-10-18T07:14:03.874Z,43.10
2022-10-18T07:16:33.462Z,36.47
2022-10-18T07:19:02.070Z,36.83
2022-10-18T07:21:30.644Z,37.03
2022-10-18T07:23:59.135Z,36.00
2022-10-18T07:26:32.764Z,40.50
2022-10-18T07:29:06.314Z,45.17
2022-10-18T07:31:34.954Z,45.10
2022-10-18T07:34:06.475Z,36.40
2022-10-18T07:36:35.390Z,40.20
2022-10-18T07:39:04.094Z,40.40
2022-10-18T07:41:35.535Z,33.03
2022-10-18T07:44:05.482Z,36.37
2022-10-18T07:46:34.102Z,32.67
2022-10-18T07:49:03.134Z,32.20
2022-10-18T07:51:33.673Z,29.80
2022-10-18T07:54:02.096Z,33.50
2022-10-18T07:56:30.584Z,29.73
2022-10-18T07:58:59.103Z,29.17
2022-10-18T08:01:27.686Z,31.30
2022-10-18T08:03:56.189Z,34.57
2022-10-18T08:06:25.277Z,36.53
2022-10-18T08:08:53.794Z,27.43
2022-10-18T08:11:25.160Z,28.73
2022-10-18T08:13:54.785Z,34.80
2022-10-18T08:16:29.003Z,32.20
2022-10-18T08:18:59.769Z,33.53
2022-10-18T08:21:28.689Z,31.80
2022-10-18T08:23:57.225Z,30.63
2022-10-18T08:26:25.950Z,35.77
2022-10-18T08:29:10.167Z,30.33
2022-10-18T08:31:39.015Z,29.43
2022-10-18T08:34:07.478Z,36.63
2022-10-18T08:36:35.976Z,29.00
2022-10-18T08:39:04.737Z,33.13
2022-10-18T08:41:54.729Z,33.40
2022-10-18T08:44:34.085Z,33.23
2022-10-18T08:47:07.920Z,36.47
2022-10-18T08:49:46.564Z,28.70
2022-10-18T08:52:49.049Z,39.47
2022-10-18T08:55:30.010Z,31.43
2022-10-18T08:57:59.462Z,28.53
2022-10-18T09:00:35.364Z,29.97
2022-10-18T09:03:25.367Z,31.00
2022-10-18T09:06:02.337Z,30.03
2022-10-18T09:09:09.559Z,38.97
2022-10-18T09:12:16.514Z,34.33
2022-10-18T09:15:15.709Z,32.63
2022-10-18T09:17:51.434Z,36.93
2022-10-18T09:20:27.338Z,30.10
2022-10-18T09:23:16.987Z,32.23
2022-10-18T09:26:12.155Z,30.30
2022-10-18T09:28:46.316Z,36.00
2022-10-18T09:31:35.943Z,37.13
2022-10-18T09:34:12.686Z,41.23
2022-10-18T09:36:41.376Z,38.47
2022-10-18T09:39:21.014Z,38.57
2022-10-18T09:42:15.697Z,39.90
2022-10-18T09:45:00.396Z,43.03
2022-10-18T09:47:45.736Z,38.63
2022-10-18T09:50:47.086Z,34.37
2022-10-18T09:53:27.981Z,43.80
2022-10-18T09:56:10.616Z,44.70
2022-10-18T09:58:52.104Z,51.47
2022-10-18T10:01:24.490Z,40.40
2022-10-18T10:03:53.490Z,42.63
2022-10-18T10:06:35.440Z,43.63
2022-10-18T10:09:31.890Z,59.00
2022-10-18T10:12:00.511Z,47.13
2022-10-18T10:14:31.194Z,40.07
2022-10-18T10:17:04.232Z,40.50
2022-10-18T10:19:58.714Z,47.27
2022-10-18T10:22:39.620Z,41.50
2022-10-18T10:25:08.834Z,44.20
2022-10-18T10:27:47.572Z,39.20
2022-10-18T10:30:28.257Z,44.57
2022-10-18T10:32:58.040Z,36.43
2022-10-18T10:38:30.074Z,41.93
2022-10-18T10:40:59.215Z,38.73
2022-10-18T10:43:38.726Z,40.57
2022-10-18T10:46:14.925Z,40.93
2022-10-18T10:49:04.160Z,44.37
2022-10-18T10:51:42.910Z,35.33
2022-10-18T10:54:21.675Z,39.73
2022-10-18T10:57:13.206Z,40.20
2022-10-18T10:59:47.638Z,40.43
2022-10-18T11:02:18.985Z,51.73
2022-10-18T11:04:52.552Z,48.53
2022-10-18T11:07:36.529Z,50.90
2022-10-18T11:10:19.229Z,41.10
2022-10-18T11:13:23.950Z,47.90
2022-10-18T11:15:58.374Z,44.60
2022-10-18T11:18:38.541Z,39.77
2022-10-18T11:21:22.099Z,43.10
2022-10-18T11:23:50.697Z,38.63
2022-10-18T11:26:48.873Z,43.83
2022-10-18T11:29:42.929Z,49.60
2022-10-18T11:32:32.585Z,53.07
2022-10-18T11:35:23.880Z,54.53
2022-10-18T11:37:54.993Z,67.47
2022-10-18T11:40:32.439Z,65.60
2022-10-18T11:43:16.165Z,52.57
2022-10-18T11:46:09.080Z,88.60
2022-10-18T11:48:58.838Z,56.47
2022-10-18T11:52:07.206Z,89.33
2022-10-18T11:54:48.656Z,62.30
2022-10-18T11:57:44.014Z,61.60
2022-10-18T12:00:43.633Z,57.87
2022-10-18T12:03:33.700Z,59.90
2022-10-18T12:06:07.672Z,58.73
2022-10-18T12:08:53.899Z,58.63
2022-10-18T12:11:35.134Z,56.77
2022-10-18T12:14:24.134Z,74.07
2022-10-18T12:17:06.784Z,55.43
2022-10-18T12:19:43.635Z,58.43
2022-10-18T12:22:39.228Z,86.10
2022-10-18T12:25:15.856Z,55.90
2022-10-18T12:28:04.759Z,56.27
2022-10-18T12:30:58.996Z,69.37
2022-10-18T12:33:33.063Z,150.70
2022-10-18T12:36:04.213Z,147.67
2022-10-18T12:38:38.889Z,131.73
2022-10-18T12:41:07.776Z,50.50
2022-10-18T12:43:39.217Z,65.63
2022-10-18T12:46:13.598Z,83.70
2022-10-18T12:49:03.934Z,79.00
2022-10-18T12:51:32.667Z,56.53
2022-10-18T12:54:04.180Z,59.93
2022-10-18T12:56:42.554Z,104.03
2022-10-18T12:59:17.106Z,75.17
2022-10-18T13:01:54.723Z,197.57
2022-10-18T13:04:29.186Z,182.60
2022-10-18T13:07:06.411Z,106.43
2022-10-18T13:09:37.364Z,126.07
2022-10-18T13:12:11.620Z,517.37
2022-10-18T13:15:20.520Z,73.43
2022-10-18T13:18:24.350Z,76.83
2022-10-18T13:21:53.808Z,317.40
2022-10-18T13:24:40.856Z,206.07
2022-10-18T13:27:52.500Z,113.00
2022-10-18T13:30:43.092Z,141.10
2022-10-18T13:33:32.696Z,130.10
2022-10-18T13:36:26.131Z,97.33
2022-10-18T13:38:58.422Z,107.37
2022-10-18T13:41:43.088Z,188.53
2022-10-18T13:44:13.385Z,172.37
2022-10-18T13:46:41.674Z,110.33
2022-10-18T13:49:28.806Z,133.73
2022-10-18T13:52:12.443Z,142.67
2022-10-18T13:54:59.210Z,136.67
2022-10-18T13:57:42.851Z,145.27
2022-10-18T14:00:49.277Z,135.73
2022-10-18T14:06:38.094Z,114.33
2022-10-18T14:09:26.443Z,188.80
2022-10-18T14:12:28.675Z,423.43
2022-10-18T14:15:09.267Z,321.97
2022-10-18T14:17:50.682Z,198.30
2022-10-18T14:20:49.459Z,125.67
2022-10-18T14:23:34.103Z,136.30
2022-10-18T14:26:10.540Z,338.20
2022-10-18T14:28:58.599Z,137.80
2022-10-18T14:31:27.773Z,301.37
2022-10-18T14:33:59.018Z,390.90
2022-10-18T14:36:31.643Z,179.97
2022-10-18T14:39:03.334Z,138.20
2022-10-18T14:41:37.382Z,245.33
2022-10-18T14:44:20.209Z,143.30
2022-10-18T14:46:54.544Z,283.70
2022-10-18T14:49:23.674Z,244.00
2022-10-18T14:51:54.181Z,169.73
2022-10-18T14:57:20.906Z,186.77
2022-10-18T14:59:57.821Z,223.17
2022-10-18T15:02:28.011Z,176.17
2022-10-18T15:05:21.612Z,167.67
2022-10-18T15:07:51.769Z,494.07
2022-10-18T15:10:32.078Z,308.43
2022-10-18T15:13:09.625Z,167.90
2022-10-18T15:15:39.832Z,552.23
2022-10-18T15:18:09.202Z,314.63
2022-10-18T15:20:43.561Z,187.60
2022-10-18T15:23:24.925Z,332.00
2022-10-18T15:26:00.780Z,316.07
2022-10-18T15:28:40.257Z,341.53
2022-10-18T15:31:23.505Z,154.13
2022-10-18T15:33:52.274Z,145.13
2022-10-18T15:36:32.515Z,214.97
2022-10-18T15:39:33.366Z,357.30
2022-10-18T15:42:03.543Z,263.83
2022-10-18T15:44:52.070Z,186.97
2022-10-18T15:47:22.925Z,137.03
2022-10-18T15:49:57.438Z,149.30
2022-10-18T15:52:38.891Z,136.33
2022-10-18T15:55:30.911Z,126.60
2022-10-18T15:58:07.669Z,203.60
2022-10-18T16:00:36.061Z,140.23
2022-10-18T16:03:04.623Z,170.73
2022-10-18T16:05:33.013Z,180.47
2022-10-18T16:08:01.412Z,143.23
2022-10-18T16:10:30.200Z,135.57
2022-10-18T16:12:58.563Z,145.50
2022-10-18T16:15:27.013Z,183.33
2022-10-18T16:17:55.397Z,190.43
2022-10-18T16:20:25.681Z,158.73
2022-10-18T16:22:54.124Z,174.67
2022-10-18T16:25:22.610Z,154.57
2022-10-18T16:27:50.956Z,111.10
2022-10-18T16:30:23.601Z,95.70
2022-10-18T16:32:51.927Z,93.77
2022-10-18T16:35:20.290Z,101.07
2022-10-18T16:37:48.763Z,104.13
2022-10-18T16:40:25.832Z,97.63
2022-10-18T16:42:54.222Z,95.83
2022-10-18T16:45:22.757Z,114.90
2022-10-18T16:47:51.109Z,84.83
2022-10-18T16:50:22.707Z,91.10
2022-10-18T16:52:51.077Z,78.43
2022-10-18T16:55:25.694Z,89.43
2022-10-18T16:57:54.100Z,98.43
2022-10-18T17:00:25.594Z,101.77
2022-10-18T17:02:54.042Z,86.10
2022-10-18T17:05:23.933Z,96.43
2022-10-18T17:07:52.519Z,95.30
2022-10-18T17:10:25.124Z,91.43
2022-10-18T17:12:53.905Z,82.17
2022-10-18T17:15:22.261Z,76.60
2022-10-18T17:17:53.495Z,88.87
2022-10-18T17:20:26.866Z,87.33
2022-10-18T17:22:55.885Z,91.73
2022-10-18T17:25:24.270Z,95.70
2022-10-18T17:27:52.638Z,93.67
2022-10-18T17:30:21.094Z,94.23
2022-10-18T17:32:49.551Z,89.33
2022-10-18T17:35:18.054Z,104.07
2022-10-18T17:37:49.719Z,91.67
2022-10-18T17:40:18.306Z,107.80
2022-10-18T17:42:46.672Z,108.37
2022-10-18T17:45:15.164Z,102.27
2022-10-18T17:47:43.492Z,106.97
2022-10-18T17:50:11.912Z,108.53
2022-10-18T17:52:44.951Z,122.53
2022-10-18T17:55:14.325Z,116.57
2022-10-18T17:57:43.943Z,116.60
2022-10-18T18:00:13.826Z,118.17
2022-10-18T18:02:43.215Z,111.17
2022-10-18T18:05:13.384Z,114.40
2022-10-18T18:07:41.841Z,118.07
2022-10-18T18:10:11.717Z,111.53
2022-10-18T18:12:40.134Z,120.17
2022-10-18T18:15:09.539Z,137.43
2022-10-18T18:17:56.000Z,110.03
2022-10-18T18:20:25.493Z,113.70
2022-10-18T18:22:54.191Z,114.33
2022-10-18T18:25:22.563Z,118.10
2022-10-18T18:27:50.995Z,113.20
2022-10-18T18:30:19.491Z,124.63
2022-10-18T18:32:47.864Z,121.47
2022-10-18T18:35:16.375Z,123.57
2022-10-18T18:37:44.752Z,112.43
2022-10-18T18:40:13.196Z,110.37
2022-10-18T18:42:41.597Z,114.80
2022-10-18T18:45:10.109Z,120.17
2022-10-18T18:47:39.507Z,119.40
2022-10-18T18:50:08.448Z,116.60
2022-10-18T18:52:36.796Z,114.87
2022-10-18T18:55:05.574Z,114.70
2022-10-18T18:57:34.113Z,130.10
2022-10-18T19:00:02.738Z,128.83
2022-10-18T19:02:31.097Z,119.23
2022-10-18T19:04:59.504Z,126.43
2022-10-18T19:07:27.836Z,121.00
2022-10-18T19:09:57.377Z,123.60
2022-10-18T19:12:25.776Z,117.47
2022-10-18T19:14:54.112Z,114.83
2022-10-18T19:17:23.337Z,133.83
2022-10-18T19:19:51.810Z,125.00
2022-10-18T19:22:20.163Z,119.93
2022-10-18T19:24:48.509Z,113.00
2022-10-18T19:27:17.039Z,99.47
2022-10-18T19:29:46.838Z,84.87
2022-10-18T19:32:17.676Z,98.37
2022-10-18T19:34:46.122Z,97.43
2022-10-18T19:37:16.208Z,84.60
2022-10-18T19:39:44.783Z,90.50
2022-10-18T19:42:18.693Z,75.27
2022-10-18T19:44:51.118Z,81.47
2022-10-18T19:47:21.270Z,83.53
2022-10-18T19:49:49.621Z,83.27
2022-10-18T19:52:17.994Z,69.40
2022-10-18T19:54:46.489Z,80.43
2022-10-18T19:57:14.884Z,74.97
2022-10-18T19:59:43.239Z,77.30
2022-10-18T20:02:16.021Z,82.43
2022-10-18T20:04:44.591Z,88.47
2022-10-18T20:07:12.952Z,75.53
2022-10-18T20:09:41.404Z,84.17
2022-10-18T20:12:09.858Z,90.13
2022-10-18T20:14:38.186Z,95.40
2022-10-18T20:17:07.118Z,94.33
2022-10-18T20:19:35.531Z,87.83
2022-10-18T20:22:03.918Z,92.20
2022-10-18T20:24:32.334Z,113.80
2022-10-18T20:27:00.695Z,103.50
2022-10-18T20:29:29.122Z,108.83
2022-10-18T20:31:57.658Z,102.97
2022-10-18T20:34:26.909Z,111.93
2022-10-18T20:36:56.389Z,115.87
2022-10-18T20:39:25.041Z,116.60
2022-10-18T20:41:53.425Z,113.50
2022-10-18T20:44:23.374Z,120.43
2022-10-18T20:46:51.839Z,119.97
2022-10-18T20:49:20.330Z,124.63
2022-10-18T20:51:48.706Z,119.00
2022-10-18T20:54:17.130Z,109.57
2022-10-18T20:56:45.526Z,112.77
2022-10-18T20:59:14.622Z,114.10
2022-10-18T21:01:43.334Z,107.90
2022-10-18T21:04:12.071Z,114.80
2022-10-18T21:06:43.519Z,120.40
2022-10-18T21:09:15.345Z,108.53
2022-10-18T21:11:47.092Z,115.30
2022-10-18T21:14:17.798Z,120.43
2022-10-18T21:16:47.316Z,110.17
2022-10-18T21:19:21.661Z,112.13
2022-10-18T21:21:52.177Z,106.13
2022-10-18T21:24:22.174Z,117.83
2022-10-18T21:26:50.662Z,116.20
2022-10-18T21:29:22.296Z,117.87
2022-10-18T21:31:54.141Z,115.23
2022-10-18T21:34:23.017Z,120.03
2022-10-18T21:36:51.390Z,124.80
2022-10-18T21:41:55.867Z,127.00
2022-10-18T21:44:24.382Z,132.43
2022-10-18T21:46:52.816Z,137.20
2022-10-18T21:49:24.157Z,141.70
2022-10-18T21:51:52.577Z,139.13
2022-10-18T21:54:21.021Z,149.50
2022-10-18T21:56:49.414Z,147.50
2022-10-18T21:59:17.922Z,153.90
2022-10-18T22:01:46.647Z,149.57
2022-10-18T22:04:23.828Z,154.03
2022-10-18T22:06:52.601Z,159.77
2022-10-18T22:09:22.040Z,159.43
2022-10-18T22:11:53.287Z,157.30
2022-10-18T22:14:22.902Z,156.27
2022-10-18T22:16:51.847Z,160.10
2022-10-18T22:19:20.574Z,150.33
2022-10-18T22:21:49.226Z,153.53
2022-10-18T22:24:17.737Z,152.63
2022-10-18T22:26:47.313Z,156.40
2022-10-18T22:29:18.530Z,165.50
2022-10-18T22:31:52.875Z,167.73
2022-10-18T22:34:28.267Z,153.47
2022-10-18T22:36:57.167Z,155.63
2022-10-18T22:39:25.717Z,160.57
2022-10-18T22:41:57.085Z,158.43
2022-10-18T22:44:26.237Z,146.27
2022-10-18T22:46:54.601Z,149.63
2022-10-18T22:49:23.413Z,149.10
2022-10-18T22:51:52.088Z,145.87
2022-10-18T22:54:20.858Z,140.27
2022-10-18T22:56:49.356Z,156.30
2022-10-18T22:59:17.805Z,142.63
2022-10-18T23:01:46.219Z,157.20
2022-10-18T23:04:14.585Z,144.80
2022-10-18T23:06:43.272Z,145.53
2022-10-18T23:09:12.802Z,137.60
2022-10-18T23:11:41.147Z,143.40
2022-10-18T23:14:09.566Z,143.43
2022-10-18T23:16:38.062Z,141.17
2022-10-18T23:19:06.469Z,141.37
2022-10-18T23:21:35.497Z,132.97
2022-10-18T23:24:04.258Z,133.97
2022-10-18T23:26:32.922Z,133.03
2022-10-18T23:29:01.451Z,125.20
2022-10-18T23:31:32.961Z,131.80
2022-10-18T23:34:03.856Z,131.30
2022-10-18T23:36:33.530Z,132.73
2022-10-18T23:39:02.314Z,127.77
2022-10-18T23:41:30.954Z,126.30
2022-10-18T23:43:59.324Z,123.67
2022-10-18T23:46:27.717Z,117.60
2022-10-18T23:48:56.173Z,111.83
2022-10-18T23:51:24.597Z,112.13
2022-10-18T23:53:53.021Z,109.73
2022-10-18T23:56:21.509Z,110.90
2022-10-18T23:58:49.878Z,105.07
